sensor_id;sensor_type;location;lat;lon;timestamp;pressure;altitude;pressure_sealevel;temperature;humidity
15750;BME280;7976;52.526;13.326;2023-01-29T00:01:21;102276.19;;;1.56;74.61
15750;BME280;7976;52.526;13.326;2023-01-29T00:03:50;102274.34;;;1.52;74.84
15750;BME280;7976;52.526;13.326;2023-01-29T00:06:17;102262.19;;;1.48;74.78
15750;BME280;7976;52.526;13.326;2023-01-29T00:08:44;102265.63;;;1.47;74.89
15750;BME280;7976;52.526;13.326;2023-01-29T00:11:12;102262.19;;;1.48;74.80
15750;BME280;7976;52.526;13.326;2023-01-29T00:13:41;102266.53;;;1.49;75.02
15750;BME280;7976;52.526;13.326;2023-01-29T00:16:08;102270.94;;;1.54;74.89
15750;BME280;7976;52.526;13.326;2023-01-29T00:18:38;102274.44;;;1.56;75.04
15750;BME280;7976;52.526;13.326;2023-01-29T00:21:09;102269.44;;;1.61;74.95
15750;BME280;7976;52.526;13.326;2023-01-29T00:23:36;102264.38;;;1.65;75.07
15750;BME280;7976;52.526;13.326;2023-01-29T00:26:03;102266.25;;;1.72;75.21
15750;BME280;7976;52.526;13.326;2023-01-29T00:28:32;102252.53;;;1.75;75.29
15750;BME280;7976;52.526;13.326;2023-01-29T00:31:06;102256.75;;;1.71;74.96
15750;BME280;7976;52.526;13.326;2023-01-29T00:33:33;102261.09;;;1.72;74.87
15750;BME280;7976;52.526;13.326;2023-01-29T00:36:03;102257.56;;;1.69;74.93
15750;BME280;7976;52.526;13.326;2023-01-29T00:38:30;102254.06;;;1.65;75.19
15750;BME280;7976;52.526;13.326;2023-01-29T00:41:04;102244.53;;;1.64;75.06
15750;BME280;7976;52.526;13.326;2023-01-29T00:43:51;102240.31;;;1.66;75.26
15750;BME280;7976;52.526;13.326;2023-01-29T00:46:35;102239.56;;;1.70;75.41
15750;BME280;7976;52.526;13.326;2023-01-29T00:49:03;102218.09;;;1.73;75.04
15750;BME280;7976;52.526;13.326;2023-01-29T00:51:30;102234.41;;;1.70;75.30
15750;BME280;7976;52.526;13.326;2023-01-29T00:53:57;102238.66;;;1.70;75.26
15750;BME280;7976;52.526;13.326;2023-01-29T00:56:28;102236.06;;;1.68;75.29
15750;BME280;7976;52.526;13.326;2023-01-29T00:58:56;102243.75;;;1.67;75.27
15750;BME280;7976;52.526;13.326;2023-01-29T01:01:23;102243.69;;;1.64;75.33
15750;BME280;7976;52.526;13.326;2023-01-29T01:04:05;102242.94;;;1.69;75.49
15750;BME280;7976;52.526;13.326;2023-01-29T01:06:32;102235.28;;;1.71;75.40
15750;BME280;7976;52.526;13.326;2023-01-29T01:08:58;102240.44;;;1.71;75.40
15750;BME280;7976;52.526;13.326;2023-01-29T01:11:42;102236.13;;;1.71;75.64
15750;BME280;7976;52.526;13.326;2023-01-29T01:14:11;102236.97;;;1.70;75.57
15750;BME280;7976;52.526;13.326;2023-01-29T01:16:39;102241.94;;;1.63;75.73
15750;BME280;7976;52.526;13.326;2023-01-29T01:19:07;102243.63;;;1.61;76.04
15750;BME280;7976;52.526;13.326;2023-01-29T01:21:34;102230.78;;;1.62;76.18
15750;BME280;7976;52.526;13.326;2023-01-29T01:24:01;102237.59;;;1.60;76.01
15750;BME280;7976;52.526;13.326;2023-01-29T01:26:30;102237.44;;;1.54;76.21
15750;BME280;7976;52.526;13.326;2023-01-29T01:28:57;102246.69;;;1.46;76.33
15750;BME280;7976;52.526;13.326;2023-01-29T01:31:25;102231.97;;;1.41;76.92
15750;BME280;7976;52.526;13.326;2023-01-29T01:33:53;102233.72;;;1.42;77.26
15750;BME280;7976;52.526;13.326;2023-01-29T01:36:21;102233.81;;;1.46;77.33
15750;BME280;7976;52.526;13.326;2023-01-29T01:38:48;102237.31;;;1.48;77.38
15750;BME280;7976;52.526;13.326;2023-01-29T01:41:18;102240.06;;;1.56;77.48
15750;BME280;7976;52.526;13.326;2023-01-29T01:43:51;102241.88;;;1.60;77.30
15750;BME280;7976;52.526;13.326;2023-01-29T01:46:20;102243.53;;;1.58;77.53
15750;BME280;7976;52.526;13.326;2023-01-29T01:48:53;102247.75;;;1.54;77.24
15750;BME280;7976;52.526;13.326;2023-01-29T01:51:24;102249.53;;;1.57;77.57
15750;BME280;7976;52.526;13.326;2023-01-29T01:53:56;102246.06;;;1.55;77.46
15750;BME280;7976;52.526;13.326;2023-01-29T01:56:31;102232.28;;;1.54;77.50
15750;BME280;7976;52.526;13.326;2023-01-29T01:59:08;102232.25;;;1.53;77.66
15750;BME280;7976;52.526;13.326;2023-01-29T02:01:36;102225.41;;;1.55;77.74
15750;BME280;7976;52.526;13.326;2023-01-29T02:04:12;102223.78;;;1.58;77.66
15750;BME280;7976;52.526;13.326;2023-01-29T02:07:02;102215.28;;;1.61;77.92
15750;BME280;7976;52.526;13.326;2023-01-29T02:09:52;102210.03;;;1.59;77.59
15750;BME280;7976;52.526;13.326;2023-01-29T02:12:22;102207.47;;;1.59;77.50
15750;BME280;7976;52.526;13.326;2023-01-29T02:14:50;102211.88;;;1.63;77.99
15750;BME280;7976;52.526;13.326;2023-01-29T02:17:18;102205.94;;;1.66;77.70
15750;BME280;7976;52.526;13.326;2023-01-29T02:19:59;102208.53;;;1.67;77.83
15750;BME280;7976;52.526;13.326;2023-01-29T02:22:57;102208.59;;;1.70;77.91
15750;BME280;7976;52.526;13.326;2023-01-29T02:25:57;102198.41;;;1.76;77.84
15750;BME280;7976;52.526;13.326;2023-01-29T02:28:35;102195.81;;;1.76;77.71
15750;BME280;7976;52.526;13.326;2023-01-29T02:31:13;102201.91;;;1.78;77.89
15750;BME280;7976;52.526;13.326;2023-01-29T02:33:56;102200.16;;;1.77;77.81
15750;BME280;7976;52.526;13.326;2023-01-29T02:36:34;102207.06;;;1.78;77.70
15750;BME280;7976;52.526;13.326;2023-01-29T02:39:15;102207.94;;;1.79;77.83
15750;BME280;7976;52.526;13.326;2023-01-29T02:41:55;102207.94;;;1.79;78.10
15750;BME280;7976;52.526;13.326;2023-01-29T02:44:35;102198.47;;;1.79;78.04
15750;BME280;7976;52.526;13.326;2023-01-29T02:47:09;102205.38;;;1.80;78.12
15750;BME280;7976;52.526;13.326;2023-01-29T02:49:54;102204.59;;;1.84;78.21
15750;BME280;7976;52.526;13.326;2023-01-29T02:52:37;102195.13;;;1.83;78.03
15750;BME280;7976;52.526;13.326;2023-01-29T02:55:16;102191.66;;;1.83;78.21
15750;BME280;7976;52.526;13.326;2023-01-29T02:57:48;102184.88;;;1.86;78.44
15750;BME280;7976;52.526;13.326;2023-01-29T03:00:24;102186.63;;;1.87;78.38
15750;BME280;7976;52.526;13.326;2023-01-29T03:03:01;102178.88;;;1.86;78.05
15750;BME280;7976;52.526;13.326;2023-01-29T03:05:37;102183.16;;;1.87;78.34
15750;BME280;7976;52.526;13.326;2023-01-29T03:08:19;102194.53;;;1.96;78.66
15750;BME280;7976;52.526;13.326;2023-01-29T03:10:52;102190.25;;;1.95;78.71
15750;BME280;7976;52.526;13.326;2023-01-29T03:13:33;102179.81;;;1.91;78.50
15750;BME280;7976;52.526;13.326;2023-01-29T03:16:15;102185.06;;;1.95;78.34
15750;BME280;7976;52.526;13.326;2023-01-29T03:18:51;102179.84;;;1.92;78.86
15750;BME280;7976;52.526;13.326;2023-01-29T03:21:32;102185.81;;;1.90;78.71
15750;BME280;7976;52.526;13.326;2023-01-29T03:24:31;102185.97;;;1.96;78.75
15750;BME280;7976;52.526;13.326;2023-01-29T03:27:29;102183.31;;;1.94;78.92
15750;BME280;7976;52.526;13.326;2023-01-29T03:30:18;102179.78;;;1.89;78.64
15750;BME280;7976;52.526;13.326;2023-01-29T03:33:42;102162.59;;;1.90;79.08
15750;BME280;7976;52.526;13.326;2023-01-29T03:36:16;102166.06;;;1.90;79.01
15750;BME280;7976;52.526;13.326;2023-01-29T03:38:45;102158.34;;;1.92;78.95
15750;BME280;7976;52.526;13.326;2023-01-29T03:41:24;102159.94;;;1.87;79.00
15750;BME280;7976;52.526;13.326;2023-01-29T03:44:04;102153.84;;;1.83;79.26
15750;BME280;7976;52.526;13.326;2023-01-29T03:46:43;102138.34;;;1.82;79.23
15750;BME280;7976;52.526;13.326;2023-01-29T03:49:26;102141.88;;;1.85;79.58
15750;BME280;7976;52.526;13.326;2023-01-29T03:52:03;102129.06;;;1.91;79.42
15750;BME280;7976;52.526;13.326;2023-01-29T03:54:41;102130.88;;;1.95;79.38
15750;BME280;7976;52.526;13.326;2023-01-29T03:57:21;102117.13;;;1.96;79.47
15750;BME280;7976;52.526;13.326;2023-01-29T04:00:03;102113.75;;;1.99;79.40
15750;BME280;7976;52.526;13.326;2023-01-29T04:03:00;102106.00;;;1.97;79.24
15750;BME280;7976;52.526;13.326;2023-01-29T04:05:41;102095.69;;;1.99;79.49
15750;BME280;7976;52.526;13.326;2023-01-29T04:08:25;102097.44;;;2.01;79.62
15750;BME280;7976;52.526;13.326;2023-01-29T04:10:58;102091.34;;;1.96;79.59
15750;BME280;7976;52.526;13.326;2023-01-29T04:13:30;102083.53;;;1.93;79.84
15750;BME280;7976;52.526;13.326;2023-01-29T04:16:00;102084.41;;;1.94;79.93
15750;BME280;7976;52.526;13.326;2023-01-29T04:18:49;102081.69;;;1.88;80.48
15750;BME280;7976;52.526;13.326;2023-01-29T04:21:24;102074.81;;;1.87;80.78
15750;BME280;7976;52.526;13.326;2023-01-29T04:23:51;102080.88;;;1.89;80.94
15750;BME280;7976;52.526;13.326;2023-01-29T04:26:32;102076.50;;;1.86;81.21
15750;BME280;7976;52.526;13.326;2023-01-29T04:29:20;102074.66;;;1.79;81.16
15750;BME280;7976;52.526;13.326;2023-01-29T04:32:08;102061.69;;;1.76;82.06
15750;BME280;7976;52.526;13.326;2023-01-29T04:34:52;102062.59;;;1.78;82.43
15750;BME280;7976;52.526;13.326;2023-01-29T04:37:35;102059.13;;;1.76;82.51
15750;BME280;7976;52.526;13.326;2023-01-29T04:40:18;102056.50;;;1.75;83.01
15750;BME280;7976;52.526;13.326;2023-01-29T04:42:54;102060.78;;;1.74;83.38
15750;BME280;7976;52.526;13.326;2023-01-29T04:45:34;102068.53;;;1.74;83.57
15750;BME280;7976;52.526;13.326;2023-01-29T04:48:17;102065.94;;;1.74;84.15
15750;BME280;7976;52.526;13.326;2023-01-29T04:50:54;102063.44;;;1.76;84.43
15750;BME280;7976;52.526;13.326;2023-01-29T04:53:33;102064.28;;;1.76;84.66
15750;BME280;7976;52.526;13.326;2023-01-29T04:56:10;102071.19;;;1.77;84.62
15750;BME280;7976;52.526;13.326;2023-01-29T04:58:49;102066.03;;;1.77;84.69
15750;BME280;7976;52.526;13.326;2023-01-29T05:01:20;102071.19;;;1.77;84.90
15750;BME280;7976;52.526;13.326;2023-01-29T05:03:53;102070.28;;;1.75;85.27
15750;BME280;7976;52.526;13.326;2023-01-29T05:06:22;102067.75;;;1.78;85.45
15750;BME280;7976;52.526;13.326;2023-01-29T05:08:52;102076.38;;;1.79;85.58
15750;BME280;7976;52.526;13.326;2023-01-29T05:11:21;102078.06;;;1.77;85.46
15750;BME280;7976;52.526;13.326;2023-01-29T05:13:49;102077.16;;;1.75;85.94
15750;BME280;7976;52.526;13.326;2023-01-29T05:16:21;102068.50;;;1.73;86.14
15750;BME280;7976;52.526;13.326;2023-01-29T05:18:49;102065.88;;;1.71;85.81
15750;BME280;7976;52.526;13.326;2023-01-29T05:21:16;102071.88;;;1.69;86.43
15750;BME280;7976;52.526;13.326;2023-01-29T05:23:44;102072.63;;;1.65;86.61
15750;BME280;7976;52.526;13.326;2023-01-29T05:26:26;102077.81;;;1.66;86.80
15750;BME280;7976;52.526;13.326;2023-01-29T05:29:11;102081.25;;;1.65;87.11
15750;BME280;7976;52.526;13.326;2023-01-29T05:31:37;102076.16;;;1.68;87.26
15750;BME280;7976;52.526;13.326;2023-01-29T05:34:05;102078.69;;;1.67;87.39
15750;BME280;7976;52.526;13.326;2023-01-29T05:36:31;102084.81;;;1.70;87.16
15750;BME280;7976;52.526;13.326;2023-01-29T05:38:58;102078.75;;;1.70;87.52
15750;BME280;7976;52.526;13.326;2023-01-29T05:41:26;102083.03;;;1.69;87.50
15750;BME280;7976;52.526;13.326;2023-01-29T05:43:53;102071.94;;;1.72;87.26
15750;BME280;7976;52.526;13.326;2023-01-29T05:46:20;102083.19;;;1.75;87.58
15750;BME280;7976;52.526;13.326;2023-01-29T05:48:47;102076.31;;;1.76;87.45
15750;BME280;7976;52.526;13.326;2023-01-29T05:51:14;102083.19;;;1.75;87.73
15750;BME280;7976;52.526;13.326;2023-01-29T05:53:41;102084.00;;;1.74;87.73
15750;BME280;7976;52.526;13.326;2023-01-29T05:56:08;102080.53;;;1.72;87.70
15750;BME280;7976;52.526;13.326;2023-01-29T05:58:36;102091.88;;;1.80;87.63
15750;BME280;7976;52.526;13.326;2023-01-29T06:01:12;102091.00;;;1.80;87.75
15750;BME280;7976;52.526;13.326;2023-01-29T06:03:39;102091.94;;;1.83;87.77
15750;BME280;7976;52.526;13.326;2023-01-29T06:06:07;102096.19;;;1.81;87.87
15750;BME280;7976;52.526;13.326;2023-01-29T06:08:34;102092.81;;;1.84;87.75
15750;BME280;7976;52.526;13.326;2023-01-29T06:11:01;102097.16;;;1.86;87.79
15750;BME280;7976;52.526;13.326;2023-01-29T06:13:28;102095.53;;;1.91;88.00
15750;BME280;7976;52.526;13.326;2023-01-29T06:15:56;102105.84;;;1.91;87.82
15750;BME280;7976;52.526;13.326;2023-01-29T06:18:23;102107.53;;;1.89;87.73
15750;BME280;7976;52.526;13.326;2023-01-29T06:20:50;102111.91;;;1.92;88.02
15750;BME280;7976;52.526;13.326;2023-01-29T06:23:17;102094.69;;;1.91;87.82
15750;BME280;7976;52.526;13.326;2023-01-29T06:25:44;102098.13;;;1.91;87.87
15750;BME280;7976;52.526;13.326;2023-01-29T06:28:11;102096.41;;;1.92;87.83
15750;BME280;7976;52.526;13.326;2023-01-29T06:30:38;102092.97;;;1.93;87.84
15750;BME280;7976;52.526;13.326;2023-01-29T06:33:06;102095.59;;;1.94;87.86
15750;BME280;7976;52.526;13.326;2023-01-29T06:35:32;102094.78;;;1.95;87.86
15750;BME280;7976;52.526;13.326;2023-01-29T06:37:59;102095.59;;;1.94;87.88
15750;BME280;7976;52.526;13.326;2023-01-29T06:40:26;102099.06;;;1.96;88.07
15750;BME280;7976;52.526;13.326;2023-01-29T06:42:53;102091.34;;;1.98;87.79
15750;BME280;7976;52.526;13.326;2023-01-29T06:45:20;102089.63;;;1.97;88.18
15750;BME280;7976;52.526;13.326;2023-01-29T06:47:46;102092.25;;;1.98;88.08
15750;BME280;7976;52.526;13.326;2023-01-29T06:50:15;102103.47;;;2.00;88.06
15750;BME280;7976;52.526;13.326;2023-01-29T06:52:42;102108.63;;;2.00;88.13
15750;BME280;7976;52.526;13.326;2023-01-29T06:55:09;102112.03;;;1.99;88.19
15750;BME280;7976;52.526;13.326;2023-01-29T06:57:36;102102.63;;;2.01;88.24
15750;BME280;7976;52.526;13.326;2023-01-29T07:00:04;102098.34;;;2.03;88.16
15750;BME280;7976;52.526;13.326;2023-01-29T07:02:31;102098.34;;;2.03;88.07
15750;BME280;7976;52.526;13.326;2023-01-29T07:04:58;102100.09;;;2.04;88.33
15750;BME280;7976;52.526;13.326;2023-01-29T07:07:26;102096.66;;;2.04;88.27
15750;BME280;7976;52.526;13.326;2023-01-29T07:09:53;102083.72;;;2.02;88.29
15750;BME280;7976;52.526;13.326;2023-01-29T07:12:20;102093.19;;;2.03;88.50
15750;BME280;7976;52.526;13.326;2023-01-29T07:14:47;102088.94;;;2.05;88.54
15750;BME280;7976;52.526;13.326;2023-01-29T07:17:14;102083.84;;;2.08;88.72
15750;BME280;7976;52.526;13.326;2023-01-29T07:19:41;102089.00;;;2.08;88.56
15750;BME280;7976;52.526;13.326;2023-01-29T07:22:08;102086.44;;;2.10;88.78
15750;BME280;7976;52.526;13.326;2023-01-29T07:24:36;102074.44;;;2.12;88.93
15750;BME280;7976;52.526;13.326;2023-01-29T07:27:03;102100.31;;;2.16;88.87
15750;BME280;7976;52.526;13.326;2023-01-29T07:29:30;102100.31;;;2.15;89.08
15750;BME280;7976;52.526;13.326;2023-01-29T07:31:57;102108.03;;;2.15;88.87
15750;BME280;7976;52.526;13.326;2023-01-29T07:34:24;102095.94;;;2.11;88.68
15750;BME280;7976;52.526;13.326;2023-01-29T07:36:52;102099.22;;;2.02;88.78
15750;BME280;7976;52.526;13.326;2023-01-29T07:39:19;102095.78;;;2.03;89.12
15750;BME280;7976;52.526;13.326;2023-01-29T07:41:47;102088.81;;;1.99;89.36
15750;BME280;7976;52.526;13.326;2023-01-29T07:44:15;102078.53;;;2.01;89.69
15750;BME280;7976;52.526;13.326;2023-01-29T07:46:42;102075.09;;;2.00;89.87
15750;BME280;7976;52.526;13.326;2023-01-29T07:49:09;102063.00;;;1.99;89.58
15750;BME280;7976;52.526;13.326;2023-01-29T07:51:35;102058.78;;;2.04;90.06
15750;BME280;7976;52.526;13.326;2023-01-29T07:54:03;102047.69;;;2.08;90.04
15750;BME280;7976;52.526;13.326;2023-01-29T07:56:30;102051.19;;;2.10;89.99
15750;BME280;7976;52.526;13.326;2023-01-29T07:58:58;102057.28;;;2.14;90.35
15750;BME280;7976;52.526;13.326;2023-01-29T08:01:25;102063.38;;;2.17;90.42
15750;BME280;7976;52.526;13.326;2023-01-29T08:03:52;102071.97;;;2.19;90.37
15750;BME280;7976;52.526;13.326;2023-01-29T08:06:19;102051.28;;;2.16;90.32
15750;BME280;7976;52.526;13.326;2023-01-29T08:08:46;102043.53;;;2.16;90.65
15750;BME280;7976;52.526;13.326;2023-01-29T08:11:13;102048.84;;;2.22;90.61
15750;BME280;7976;52.526;13.326;2023-01-29T08:13:41;102041.00;;;2.19;90.91
15750;BME280;7976;52.526;13.326;2023-01-29T08:16:09;102044.53;;;2.24;90.97
15750;BME280;7976;52.526;13.326;2023-01-29T08:18:36;102042.03;;;2.27;91.13
15750;BME280;7976;52.526;13.326;2023-01-29T08:21:03;102042.97;;;2.31;91.04
15750;BME280;7976;52.526;13.326;2023-01-29T08:23:30;102047.19;;;2.27;90.87
15750;BME280;7976;52.526;13.326;2023-01-29T08:25:57;102050.81;;;2.38;91.14
15750;BME280;7976;52.526;13.326;2023-01-29T08:28:24;102045.75;;;2.44;91.27
15750;BME280;7976;52.526;13.326;2023-01-29T08:30:51;102038.91;;;2.46;91.54
15750;BME280;7976;52.526;13.326;2023-01-29T08:33:20;102046.84;;;2.57;91.90
15750;BME280;7976;52.526;13.326;2023-01-29T08:35:48;102038.34;;;2.64;91.67
15750;BME280;7976;52.526;13.326;2023-01-29T08:38:16;102043.53;;;2.66;92.00
15750;BME280;7976;52.526;13.326;2023-01-29T08:40:44;102045.22;;;2.64;92.06
15750;BME280;7976;52.526;13.326;2023-01-29T08:43:12;102053.78;;;2.60;92.04
15750;BME280;7976;52.526;13.326;2023-01-29T08:45:42;102045.19;;;2.62;92.47
15750;BME280;7976;52.526;13.326;2023-01-29T08:48:09;102040.78;;;2.56;92.65
15750;BME280;7976;52.526;13.326;2023-01-29T08:50:38;102044.16;;;2.51;92.41
15750;BME280;7976;52.526;13.326;2023-01-29T08:53:07;102043.28;;;2.49;93.03
15750;BME280;7976;52.526;13.326;2023-01-29T08:55:35;102056.22;;;2.50;92.93
15750;BME280;7976;52.526;13.326;2023-01-29T08:58:03;102039.84;;;2.51;93.05
15750;BME280;7976;52.526;13.326;2023-01-29T09:00:31;102042.47;;;2.53;93.06
15750;BME280;7976;52.526;13.326;2023-01-29T09:02:58;102031.28;;;2.52;93.03
15750;BME280;7976;52.526;13.326;2023-01-29T09:05:25;102032.09;;;2.51;93.07
15750;BME280;7976;52.526;13.326;2023-01-29T09:07:55;102028.69;;;2.51;93.23
15750;BME280;7976;52.526;13.326;2023-01-29T09:10:22;102024.41;;;2.54;93.29
15750;BME280;7976;52.526;13.326;2023-01-29T09:12:50;102030.50;;;2.58;92.79
15750;BME280;7976;52.526;13.326;2023-01-29T09:15:17;102040.91;;;2.61;92.84
15750;BME280;7976;52.526;13.326;2023-01-29T09:17:46;102032.22;;;2.58;92.76
15750;BME280;7976;52.526;13.326;2023-01-29T09:20:14;102026.13;;;2.52;92.59
15750;BME280;7976;52.526;13.326;2023-01-29T09:22:42;102033.94;;;2.57;92.48
15750;BME280;7976;52.526;13.326;2023-01-29T09:25:10;102022.69;;;2.53;92.62
15750;BME280;7976;52.526;13.326;2023-01-29T09:27:37;102021.81;;;2.54;92.29
15750;BME280;7976;52.526;13.326;2023-01-29T09:30:06;102022.84;;;2.63;92.63
15750;BME280;7976;52.526;13.326;2023-01-29T09:32:33;102029.78;;;2.68;92.54
15750;BME280;7976;52.526;13.326;2023-01-29T09:35:00;102016.03;;;2.69;92.21
15750;BME280;7976;52.526;13.326;2023-01-29T09:37:27;102021.22;;;2.71;92.05
15750;BME280;7976;52.526;13.326;2023-01-29T09:39:54;102007.47;;;2.73;91.95
15750;BME280;7976;52.526;13.326;2023-01-29T09:42:27;102014.47;;;2.79;91.92
15750;BME280;7976;52.526;13.326;2023-01-29T09:45:04;102010.25;;;2.85;91.92
15750;BME280;7976;52.526;13.326;2023-01-29T09:47:35;102006.00;;;2.89;91.69
15750;BME280;7976;52.526;13.326;2023-01-29T09:50:07;102004.38;;;2.97;91.66
15750;BME280;7976;52.526;13.326;2023-01-29T09:52:40;102001.00;;;3.01;91.41
15750;BME280;7976;52.526;13.326;2023-01-29T09:55:19;101999.34;;;3.06;91.19
15750;BME280;7976;52.526;13.326;2023-01-29T09:57:51;101985.66;;;3.13;91.08
15750;BME280;7976;52.526;13.326;2023-01-29T10:00:23;101988.34;;;3.22;90.93
15750;BME280;7976;52.526;13.326;2023-01-29T10:03:17;101970.34;;;3.28;90.78
15750;BME280;7976;52.526;13.326;2023-01-29T10:06:04;101977.25;;;3.29;90.59
15750;BME280;7976;52.526;13.326;2023-01-29T10:12:20;101967.84;;;3.35;90.01
15750;BME280;7976;52.526;13.326;2023-01-29T10:15:04;101963.41;;;3.27;89.46
15750;BME280;7976;52.526;13.326;2023-01-29T10:17:53;101956.50;;;3.23;89.46
15750;BME280;7976;52.526;13.326;2023-01-29T10:20:46;101958.25;;;3.27;89.58
15750;BME280;7976;52.526;13.326;2023-01-29T10:23:26;101957.53;;;3.38;89.38
15750;BME280;7976;52.526;13.326;2023-01-29T10:25:56;101968.78;;;3.42;89.33
15750;BME280;7976;52.526;13.326;2023-01-29T10:28:32;101987.78;;;3.44;88.92
15750;BME280;7976;52.526;13.326;2023-01-29T10:31:05;101990.41;;;3.48;88.77
15750;BME280;7976;52.526;13.326;2023-01-29T10:33:40;101974.09;;;3.54;88.67
15750;BME280;7976;52.526;13.326;2023-01-29T10:36:12;101969.94;;;3.65;88.36
15750;BME280;7976;52.526;13.326;2023-01-29T10:38:45;101973.44;;;3.71;87.86
15750;BME280;7976;52.526;13.326;2023-01-29T10:41:29;101960.53;;;3.76;87.64
15750;BME280;7976;52.526;13.326;2023-01-29T10:44:15;101960.59;;;3.82;87.49
15750;BME280;7976;52.526;13.326;2023-01-29T10:47:06;101942.53;;;3.85;86.96
15750;BME280;7976;52.526;13.326;2023-01-29T10:49:58;101951.16;;;3.88;87.00
15750;BME280;7976;52.526;13.326;2023-01-29T10:52:45;101940.00;;;3.91;86.58
15750;BME280;7976;52.526;13.326;2023-01-29T10:55:33;101940.84;;;3.90;86.05
15750;BME280;7976;52.526;13.326;2023-01-29T10:58:13;101936.53;;;3.92;86.19
15750;BME280;7976;52.526;13.326;2023-01-29T11:00:43;101925.47;;;4.05;85.89
15750;BME280;7976;52.526;13.326;2023-01-29T11:03:16;101916.91;;;4.17;85.67
15750;BME280;7976;52.526;13.326;2023-01-29T11:05:51;101897.94;;;4.21;85.15
15750;BME280;7976;52.526;13.326;2023-01-29T11:08:25;101910.88;;;4.19;84.78
15750;BME280;7976;52.526;13.326;2023-01-29T11:11:05;101912.59;;;4.17;84.47
15750;BME280;7976;52.526;13.326;2023-01-29T11:13:40;101895.31;;;4.13;84.26
15750;BME280;7976;52.526;13.326;2023-01-29T11:16:09;101893.50;;;4.05;83.91
15750;BME280;7976;52.526;13.326;2023-01-29T11:18:54;101895.22;;;4.04;83.63
15750;BME280;7976;52.526;13.326;2023-01-29T11:21:23;101893.50;;;4.05;83.68
15750;BME280;7976;52.526;13.326;2023-01-29T11:24:03;101884.06;;;4.10;83.32
15750;BME280;7976;52.526;13.326;2023-01-29T11:26:36;101883.25;;;4.17;83.38
15750;BME280;7976;52.526;13.326;2023-01-29T11:29:03;101880.69;;;4.24;83.14
15750;BME280;7976;52.526;13.326;2023-01-29T11:31:37;101871.25;;;4.29;82.97
15750;BME280;7976;52.526;13.326;2023-01-29T11:34:19;101876.47;;;4.35;82.91
15750;BME280;7976;52.526;13.326;2023-01-29T11:36:56;101864.38;;;4.37;82.61
15750;BME280;7976;52.526;13.326;2023-01-29T11:39:25;101859.25;;;4.46;82.55
15750;BME280;7976;52.526;13.326;2023-01-29T11:41:56;101857.56;;;4.51;82.14
15750;BME280;7976;52.526;13.326;2023-01-29T11:44:29;101851.56;;;4.58;81.82
15750;BME280;7976;52.526;13.326;2023-01-29T11:47:10;101856.75;;;4.63;82.03
15750;BME280;7976;52.526;13.326;2023-01-29T11:49:44;101850.72;;;4.64;81.50
15750;BME280;7976;52.526;13.326;2023-01-29T11:52:13;101848.09;;;4.62;81.39
15750;BME280;7976;52.526;13.326;2023-01-29T11:54:49;101851.56;;;4.58;81.22
15750;BME280;7976;52.526;13.326;2023-01-29T11:57:27;101851.56;;;4.55;80.94
15750;BME280;7976;52.526;13.326;2023-01-29T11:59:59;101842.03;;;4.54;80.92
15750;BME280;7976;52.526;13.326;2023-01-29T12:02:37;101832.56;;;4.61;80.94
15750;BME280;7976;52.526;13.326;2023-01-29T12:05:16;101830.84;;;4.66;80.71
15750;BME280;7976;52.526;13.326;2023-01-29T12:07:47;101829.16;;;4.71;80.63
15750;BME280;7976;52.526;13.326;2023-01-29T12:10:31;101822.28;;;4.80;80.48
15750;BME280;7976;52.526;13.326;2023-01-29T12:13:18;101817.94;;;4.81;80.17
15750;BME280;7976;52.526;13.326;2023-01-29T12:15:48;101812.78;;;4.82;80.18
15750;BME280;7976;52.526;13.326;2023-01-29T12:18:25;101808.47;;;4.80;80.05
15750;BME280;7976;52.526;13.326;2023-01-29T12:21:01;101820.53;;;4.81;79.78
15750;BME280;7976;52.526;13.326;2023-01-29T12:23:38;101825.72;;;4.84;79.73
15750;BME280;7976;52.526;13.326;2023-01-29T12:26:11;101816.25;;;4.87;79.34
15750;BME280;7976;52.526;13.326;2023-01-29T12:28:50;101817.13;;;4.86;79.33
15750;BME280;7976;52.526;13.326;2023-01-29T12:31:32;101812.81;;;4.88;79.31
15750;BME280;7976;52.526;13.326;2023-01-29T12:34:09;101805.03;;;4.85;79.12
15750;BME280;7976;52.526;13.326;2023-01-29T12:39:36;101779.94;;;4.84;79.51
15750;BME280;7976;52.526;13.326;2023-01-29T12:42:11;101778.22;;;4.80;79.03
15750;BME280;7976;52.526;13.326;2023-01-29T12:44:49;101767.81;;;4.77;79.28
15750;BME280;7976;52.526;13.326;2023-01-29T12:47:29;101779.94;;;4.80;79.32
15750;BME280;7976;52.526;13.326;2023-01-29T12:50:03;101776.47;;;4.70;78.95
15750;BME280;7976;52.526;13.326;2023-01-29T12:52:44;101785.94;;;4.68;79.12
15750;BME280;7976;52.526;13.326;2023-01-29T12:55:35;101779.88;;;4.63;79.12
15750;BME280;7976;52.526;13.326;2023-01-29T12:58:15;101770.34;;;4.56;78.96
15750;BME280;7976;52.526;13.326;2023-01-29T13:00:50;101775.53;;;4.53;79.31
15750;BME280;7976;52.526;13.326;2023-01-29T13:03:25;101775.50;;;4.49;79.29
15750;BME280;7976;52.526;13.326;2023-01-29T13:06:05;101771.16;;;4.46;79.30
15750;BME280;7976;52.526;13.326;2023-01-29T13:08:40;101770.31;;;4.47;79.61
15750;BME280;7976;52.526;13.326;2023-01-29T13:11:19;101772.06;;;4.48;79.50
15750;BME280;7976;52.526;13.326;2023-01-29T13:13:56;101769.47;;;4.51;79.76
15750;BME280;7976;52.526;13.326;2023-01-29T13:16:45;101763.41;;;4.52;79.56
15750;BME280;7976;52.526;13.326;2023-01-29T13:19:23;101759.09;;;4.51;79.51
15750;BME280;7976;52.526;13.326;2023-01-29T13:21:58;101752.19;;;4.50;79.71
15750;BME280;7976;52.526;13.326;2023-01-29T13:24:35;101753.91;;;4.51;79.81
15750;BME280;7976;52.526;13.326;2023-01-29T13:27:05;101755.69;;;4.55;79.49
15750;BME280;7976;52.526;13.326;2023-01-29T13:29:33;101742.69;;;4.52;79.73
15750;BME280;7976;52.526;13.326;2023-01-29T13:32:03;101758.28;;;4.55;79.38
15750;BME280;7976;52.526;13.326;2023-01-29T13:34:34;101749.56;;;4.49;79.49
15750;BME280;7976;52.526;13.326;2023-01-29T13:37:11;101750.44;;;4.46;79.59
15750;BME280;7976;52.526;13.326;2023-01-29T13:39:47;101745.25;;;4.46;79.57